createdAt,value
2023-03-16T00:01:05.384Z,3.37
2023-03-16T01:02:12.678Z,3.78
2023-03-16T01:04:58.352Z,4.05
2023-03-16T01:07:46.202Z,4.05
2023-03-16T01:10:31.675Z,4.20
2023-03-16T01:13:17.534Z,3.80
2023-03-16T01:29:57.037Z,4.27
2023-03-16T01:32:44.708Z,4.10
2023-03-16T01:35:32.542Z,4.50
2023-03-16T01:38:18.304Z,3.83
2023-03-16T01:41:06.396Z,4.70
2023-03-16T01:43:53.663Z,4.20
2023-03-16T01:46:39.584Z,4.15
2023-03-16T01:49:28.134Z,5.23
2023-03-16T01:52:16.704Z,4.38
2023-03-16T01:55:06.237Z,4.57
2023-03-16T01:57:53.508Z,4.88
2023-03-16T02:00:41.768Z,4.18
2023-03-16T02:03:35.642Z,4.18
2023-03-16T02:06:32.329Z,4.68
2023-03-16T02:09:21.669Z,5.40
2023-03-16T02:12:09.758Z,4.55
2023-03-16T02:15:01.104Z,4.82
2023-03-16T02:17:48.733Z,4.30
2023-03-16T02:20:42.789Z,4.50
2023-03-16T02:23:28.910Z,4.90
2023-03-16T02:26:22.992Z,4.30
2023-03-16T02:29:18.980Z,4.18
2023-03-16T02:32:08.771Z,4.88
2023-03-16T02:35:00.384Z,4.30
2023-03-16T02:37:46.157Z,4.07
2023-03-16T02:40:34.400Z,4.07
2023-03-16T02:43:33.272Z,4.03
2023-03-16T02:46:39.971Z,3.95
2023-03-16T02:49:37.427Z,4.03
2023-03-16T02:52:23.939Z,3.83
2023-03-16T02:55:11.001Z,4.35
2023-03-16T02:57:56.386Z,4.32
2023-03-16T03:00:42.977Z,4.00
2023-03-16T03:03:29.191Z,4.30
2023-03-16T03:06:16.610Z,4.18
2023-03-16T03:09:02.796Z,4.25
2023-03-16T03:11:50.598Z,4.25
2023-03-16T03:14:39.416Z,4.03
2023-03-16T03:17:30.050Z,4.18
2023-03-16T03:20:17.788Z,4.25
2023-03-16T03:23:05.518Z,3.95
2023-03-16T03:25:51.227Z,4.38
2023-03-16T03:28:37.484Z,4.07
2023-03-16T03:31:23.515Z,4.40
2023-03-16T03:34:10.148Z,4.63
2023-03-16T03:36:55.894Z,4.28
2023-03-16T03:39:43.326Z,4.43
2023-03-16T03:42:31.110Z,4.05
2023-03-16T03:45:18.237Z,4.88
2023-03-16T03:48:04.754Z,4.75
2023-03-16T03:50:51.088Z,4.50
2023-03-16T03:53:54.147Z,4.55
2023-03-16T03:57:08.019Z,4.38
2023-03-16T03:59:53.633Z,4.70
2023-03-16T04:02:58.486Z,4.60
2023-03-16T04:05:51.963Z,4.63
2023-03-16T04:08:37.926Z,4.22
2023-03-16T04:11:27.640Z,4.70
2023-03-16T04:14:14.702Z,4.28
2023-03-16T04:17:00.629Z,4.50
2023-03-16T04:19:47.662Z,4.35
2023-03-16T04:22:35.474Z,4.63
2023-03-16T04:25:21.408Z,5.05
2023-03-16T04:28:08.385Z,4.10
2023-03-16T04:31:01.688Z,4.70
2023-03-16T04:33:54.720Z,4.22
2023-03-16T04:36:42.168Z,4.72
2023-03-16T04:39:28.816Z,4.10
2023-03-16T04:42:14.877Z,4.10
2023-03-16T04:45:00.940Z,4.40
2023-03-16T04:50:36.036Z,4.75
2023-03-16T04:56:19.654Z,4.00
2023-03-16T05:02:20.121Z,5.07
2023-03-16T05:05:09.197Z,4.00
2023-03-16T05:07:59.759Z,3.90
2023-03-16T05:10:48.555Z,4.28
2023-03-16T05:13:35.361Z,3.20
2023-03-16T05:16:21.419Z,3.92
2023-03-16T05:19:07.330Z,3.80
2023-03-16T05:21:56.909Z,4.75
2023-03-16T05:24:43.107Z,3.63
2023-03-16T05:27:30.061Z,4.00
2023-03-16T05:30:17.429Z,3.97
2023-03-16T05:33:03.616Z,3.78
2023-03-16T05:35:51.082Z,3.70
2023-03-16T05:38:39.322Z,3.80
2023-03-16T05:41:28.314Z,4.38
2023-03-16T05:44:21.525Z,3.78
2023-03-16T05:50:31.603Z,3.83
2023-03-16T05:53:17.434Z,4.13
2023-03-16T05:56:05.911Z,3.65
2023-03-16T05:58:56.819Z,3.67
2023-03-16T06:01:43.644Z,3.88
2023-03-16T06:04:30.459Z,4.15
2023-03-16T06:07:17.108Z,4.30
2023-03-16T06:10:07.612Z,3.95
2023-03-16T06:12:55.249Z,3.72
2023-03-16T06:15:41.681Z,4.22
2023-03-16T06:18:27.388Z,3.65
2023-03-16T06:21:13.277Z,4.05
2023-03-16T06:24:00.487Z,3.80
2023-03-16T06:26:46.175Z,4.10
2023-03-16T06:29:34.220Z,3.72
2023-03-16T06:32:22.012Z,3.33
2023-03-16T06:35:09.482Z,4.07
2023-03-16T06:37:58.764Z,4.50
2023-03-16T06:41:00.139Z,4.18
2023-03-16T06:43:45.852Z,3.90
2023-03-16T06:46:33.560Z,3.53
2023-03-16T06:49:21.896Z,3.72
2023-03-16T06:52:10.488Z,3.75
2023-03-16T06:54:58.500Z,4.05
2023-03-16T06:57:46.607Z,3.60
2023-03-16T07:00:34.128Z,4.05
2023-03-16T07:32:57.494Z,4.40
2023-03-16T08:09:13.510Z,3.90
2023-03-16T08:12:04.549Z,4.10
2023-03-16T08:14:52.413Z,3.97
2023-03-16T08:20:36.480Z,3.90
2023-03-16T08:23:24.167Z,3.40
2023-03-16T08:26:10.982Z,3.85
2023-03-16T08:29:03.138Z,4.22
2023-03-16T08:31:56.612Z,3.42
2023-03-16T08:34:48.385Z,3.90
2023-03-16T08:37:34.752Z,4.30
2023-03-16T08:40:22.637Z,3.85
2023-03-16T08:43:09.183Z,3.72
2023-03-16T08:45:56.569Z,3.85
2023-03-16T08:48:46.115Z,3.75
2023-03-16T08:51:33.810Z,3.33
2023-03-16T08:54:19.666Z,3.17
2023-03-16T08:57:05.657Z,3.35
2023-03-16T08:59:51.532Z,3.50
2023-03-16T09:02:39.220Z,3.50
2023-03-16T09:05:25.717Z,3.55
2023-03-16T09:08:12.746Z,3.25
2023-03-16T09:11:02.317Z,3.40
2023-03-16T09:13:48.355Z,3.75
2023-03-16T09:16:35.121Z,3.53
2023-03-16T09:19:22.947Z,2.90
2023-03-16T09:22:08.514Z,3.30
2023-03-16T09:24:54.865Z,3.22
2023-03-16T09:27:40.874Z,3.20
2023-03-16T09:30:26.863Z,2.88
2023-03-16T09:33:13.348Z,2.95
2023-03-16T09:36:01.006Z,3.08
2023-03-16T09:38:46.614Z,3.45
2023-03-16T09:41:42.833Z,3.30
2023-03-16T09:44:38.601Z,2.88
2023-03-16T09:47:30.336Z,3.10
2023-03-16T09:50:24.438Z,3.53
2023-03-16T09:53:21.101Z,2.97
2023-03-16T09:56:11.257Z,3.28
2023-03-16T09:58:59.005Z,2.95
2023-03-16T10:01:57.123Z,3.33
2023-03-16T10:04:53.186Z,3.05
2023-03-16T10:07:48.144Z,2.80
2023-03-16T10:10:55.401Z,2.92
2023-03-16T10:13:47.688Z,3.13
2023-03-16T10:16:38.688Z,2.72
2023-03-16T10:19:34.041Z,2.88
2023-03-16T10:22:22.245Z,2.80
2023-03-16T10:25:15.534Z,2.90
2023-03-16T10:28:02.622Z,2.72
2023-03-16T10:30:50.404Z,2.65
2023-03-16T10:33:39.630Z,2.40
2023-03-16T10:36:30.941Z,2.72
2023-03-16T10:39:17.599Z,2.85
2023-03-16T10:42:03.133Z,2.50
2023-03-16T10:44:56.897Z,2.92
2023-03-16T10:47:42.803Z,2.42
2023-03-16T10:50:28.722Z,2.60
2023-03-16T10:53:19.628Z,2.97
2023-03-16T10:56:13.078Z,3.10
2023-03-16T10:59:00.287Z,2.75
2023-03-16T11:01:50.073Z,2.78
2023-03-16T11:04:35.935Z,2.60
2023-03-16T11:07:29.540Z,2.30
2023-03-16T11:10:27.732Z,2.55
2023-03-16T11:13:17.636Z,2.50
2023-03-16T11:16:16.839Z,2.30
2023-03-16T11:19:14.923Z,2.20
2023-03-16T11:22:03.956Z,2.33
2023-03-16T11:24:53.850Z,2.50
2023-03-16T11:27:46.054Z,2.75
2023-03-16T11:30:36.957Z,2.50
2023-03-16T11:33:23.059Z,2.60
2023-03-16T11:36:27.975Z,2.38
2023-03-16T12:28:16.742Z,2.60
2023-03-16T12:31:10.553Z,2.58
2023-03-16T12:34:08.369Z,2.28
2023-03-16T12:37:10.221Z,2.72
2023-03-16T12:40:09.179Z,2.50
2023-03-16T12:43:11.178Z,2.20
2023-03-16T12:46:04.476Z,2.08
2023-03-16T12:48:55.599Z,2.10
2023-03-16T12:51:43.265Z,2.17
2023-03-16T12:54:29.632Z,2.17
2023-03-16T12:57:17.183Z,2.35
2023-03-16T13:00:09.509Z,1.92
2023-03-16T13:02:56.277Z,2.22
2023-03-16T13:05:46.459Z,2.10
2023-03-16T13:08:42.647Z,2.97
2023-03-16T13:11:28.745Z,2.13
2023-03-16T13:14:17.822Z,2.20
2023-03-16T13:17:27.825Z,2.05
2023-03-16T13:20:31.094Z,2.40
2023-03-16T13:23:23.858Z,2.30
2023-03-16T13:26:16.421Z,2.10
2023-03-16T13:29:16.601Z,2.65
2023-03-16T13:32:07.448Z,2.17
2023-03-16T13:34:58.848Z,2.25
2023-03-16T13:37:45.795Z,2.28
2023-03-16T13:40:32.120Z,2.22
2023-03-16T13:43:21.705Z,2.38
2023-03-16T13:46:15.057Z,2.17
2023-03-16T13:49:01.213Z,2.40
2023-03-16T13:51:49.494Z,1.80
2023-03-16T13:54:37.365Z,1.90
2023-03-16T13:57:25.748Z,2.05
2023-03-16T14:00:18.132Z,1.80
2023-03-16T14:03:16.208Z,1.80
2023-03-16T14:06:02.372Z,2.15
2023-03-16T14:08:53.492Z,2.00
2023-03-16T14:11:39.634Z,2.33
2023-03-16T14:14:28.992Z,2.28
2023-03-16T14:17:17.663Z,1.55
2023-03-16T14:20:04.256Z,1.30
2023-03-16T14:22:53.553Z,1.23
2023-03-16T14:25:40.748Z,1.50
2023-03-16T14:28:32.398Z,1.80
2023-03-16T14:31:20.916Z,1.80
2023-03-16T14:34:19.973Z,1.85
2023-03-16T14:37:07.696Z,1.83
2023-03-16T14:40:01.654Z,1.50
2023-03-16T14:42:49.002Z,1.38
2023-03-16T14:45:37.482Z,1.83
2023-03-16T14:48:24.012Z,1.48
2023-03-16T14:51:13.294Z,1.30
2023-03-16T15:47:16.612Z,1.50
2023-03-16T15:50:04.389Z,1.50
2023-03-16T15:52:52.850Z,1.27
2023-03-16T16:04:12.444Z,1.80
2023-03-16T16:09:46.778Z,1.90
2023-03-16T16:46:21.607Z,1.70
2023-03-16T16:49:12.852Z,1.80
2023-03-16T16:51:58.834Z,1.67
2023-03-16T16:54:44.560Z,1.90
2023-03-16T17:00:23.124Z,1.90
2023-03-16T17:03:21.468Z,1.67
2023-03-16T17:06:15.479Z,1.48
2023-03-16T17:09:01.483Z,1.67
2023-03-16T17:11:47.740Z,1.73
2023-03-16T17:14:36.185Z,1.80
2023-03-16T17:20:15.448Z,1.60
2023-03-16T17:23:01.549Z,1.90
2023-03-16T17:25:59.647Z,1.60
2023-03-16T17:28:50.429Z,1.52
2023-03-16T17:31:40.138Z,1.90
2023-03-16T17:34:27.814Z,2.17
2023-03-16T17:37:15.224Z,1.95
2023-03-16T17:40:00.893Z,1.70
2023-03-16T17:42:47.771Z,1.60
2023-03-16T17:45:33.462Z,2.00
2023-03-16T17:48:22.245Z,2.30
2023-03-16T17:51:13.007Z,1.88
2023-03-16T17:53:59.117Z,2.00
2023-03-16T17:56:47.338Z,2.25
2023-03-16T17:59:33.310Z,2.45
2023-03-16T18:02:35.772Z,2.13
2023-03-16T18:05:25.599Z,1.80
2023-03-16T18:08:16.123Z,1.90
2023-03-16T18:11:05.143Z,1.90
2023-03-16T18:13:52.038Z,1.70
2023-03-16T18:16:38.329Z,1.63
2023-03-16T18:19:31.332Z,2.22
2023-03-16T18:22:22.321Z,1.95
2023-03-16T18:25:32.429Z,1.75
2023-03-16T18:28:19.655Z,2.65
2023-03-16T18:31:07.752Z,2.00
2023-03-16T18:33:56.632Z,2.08
2023-03-16T18:36:45.380Z,1.98
2023-03-16T18:39:32.879Z,2.25
2023-03-16T18:42:19.688Z,2.30
2023-03-16T18:45:09.756Z,2.58
2023-03-16T18:47:56.496Z,2.10
2023-03-16T18:50:43.672Z,2.00
2023-03-16T18:53:29.771Z,2.42
2023-03-16T18:56:22.789Z,2.20
2023-03-16T18:59:08.728Z,1.83
2023-03-16T19:01:54.530Z,1.65
2023-03-16T19:04:40.601Z,1.73
2023-03-16T19:07:32.810Z,1.70
2023-03-16T19:10:23.690Z,1.80
2023-03-16T19:13:15.176Z,2.03
2023-03-16T19:16:03.273Z,1.92
2023-03-16T19:18:49.704Z,1.75
2023-03-16T19:21:35.924Z,1.70
2023-03-16T19:24:25.617Z,2.05
2023-03-16T19:27:19.901Z,1.75
2023-03-16T19:30:21.374Z,2.35
2023-03-16T19:33:17.617Z,2.25
2023-03-16T19:36:04.735Z,2.00
2023-03-16T19:38:50.663Z,2.13
2023-03-16T19:41:38.326Z,2.20
2023-03-16T19:44:26.146Z,1.83
2023-03-16T19:47:24.681Z,2.28
2023-03-16T19:50:15.817Z,2.60
2023-03-16T19:53:02.303Z,2.10
2023-03-16T19:55:49.453Z,1.92
2023-03-16T19:58:38.660Z,2.47
2023-03-16T20:01:32.273Z,2.03
2023-03-16T20:04:23.149Z,2.38
2023-03-16T20:07:15.173Z,2.72
2023-03-16T20:10:01.066Z,2.95
2023-03-16T20:12:48.112Z,2.17
2023-03-16T20:15:35.389Z,2.38
2023-03-16T20:18:21.558Z,2.40
2023-03-16T20:21:13.518Z,2.25
2023-03-16T20:23:58.952Z,2.78
2023-03-16T20:26:47.084Z,2.55
2023-03-16T20:29:34.126Z,1.90
2023-03-16T20:32:22.213Z,2.90
2023-03-16T20:35:15.268Z,2.40
2023-03-16T20:38:02.855Z,2.28
2023-03-16T20:40:52.300Z,2.35
2023-03-16T20:43:38.697Z,2.08
2023-03-16T20:46:26.661Z,2.15
2023-03-16T20:49:29.929Z,2.40
2023-03-16T20:52:17.471Z,2.10
2023-03-16T20:55:05.439Z,1.70
2023-03-16T20:57:52.559Z,2.13
2023-03-16T21:00:39.262Z,1.70
2023-03-16T21:03:27.534Z,1.88
2023-03-16T21:06:22.362Z,1.55
2023-03-16T21:09:09.772Z,1.65
2023-03-16T21:11:57.202Z,1.80
2023-03-16T21:14:42.824Z,1.48
2023-03-16T21:17:31.313Z,1.65
2023-03-16T21:20:19.425Z,1.50
2023-03-16T21:23:11.605Z,1.70
2023-03-16T21:25:59.470Z,1.67
2023-03-16T21:28:52.716Z,1.63
2023-03-16T21:31:38.262Z,1.92
2023-03-16T21:34:26.921Z,1.83
2023-03-16T21:37:14.245Z,1.90
2023-03-16T21:40:01.249Z,2.42
2023-03-16T21:42:47.707Z,2.60
2023-03-16T21:45:36.595Z,2.40
2023-03-16T21:48:25.216Z,2.22
2023-03-16T21:51:13.521Z,2.67
2023-03-16T21:53:59.565Z,2.20
2023-03-16T21:56:46.263Z,2.53
2023-03-16T21:59:32.130Z,2.63
2023-03-16T22:02:23.691Z,2.10
2023-03-16T22:05:31.440Z,2.38
2023-03-16T22:08:19.775Z,2.53
2023-03-16T22:11:15.524Z,2.60
2023-03-16T22:14:01.644Z,2.55
2023-03-16T22:16:47.993Z,2.65
2023-03-16T22:19:35.211Z,2.58
2023-03-16T22:22:21.247Z,2.80
2023-03-16T22:25:14.358Z,3.03
2023-03-16T22:28:00.237Z,2.95
2023-03-16T22:30:46.219Z,2.97
2023-03-16T22:33:35.679Z,3.00
2023-03-16T22:36:23.436Z,2.78
2023-03-16T22:39:12.953Z,3.05
2023-03-16T22:41:58.315Z,3.20
2023-03-16T22:44:43.843Z,3.10
2023-03-16T22:47:33.821Z,3.72
2023-03-16T22:50:24.290Z,3.13
2023-03-16T22:53:18.928Z,3.40
2023-03-16T22:56:05.906Z,3.20
2023-03-16T22:58:54.828Z,3.30
2023-03-16T23:01:43.519Z,3.65
2023-03-16T23:04:32.256Z,3.40
2023-03-16T23:07:18.256Z,3.80
2023-03-16T23:10:08.211Z,3.70
2023-03-16T23:12:54.436Z,3.00
2023-03-16T23:15:40.044Z,2.88
2023-03-16T23:18:26.834Z,3.30
2023-03-16T23:21:14.645Z,3.15
2023-03-16T23:24:04.234Z,3.20
2023-03-16T23:26:52.997Z,2.88
2023-03-16T23:29:38.913Z,3.35
2023-03-16T23:32:24.980Z,2.75
2023-03-16T23:35:17.914Z,2.95
2023-03-16T23:38:03.983Z,3.25
2023-03-16T23:40:49.867Z,2.92
2023-03-16T23:43:37.529Z,2.63
2023-03-16T23:46:25.926Z,3.10
2023-03-16T23:49:19.093Z,3.25
2023-03-16T23:52:05.448Z,3.00
2023-03-16T23:54:51.162Z,3.40
2023-03-16T23:57:37.222Z,3.22
